Omidiyeh, Iran
Current Conditions -  °F | °C
As of 7:00 PM on Sunday 21 Dec 2014 (Local Time) from OIAG Reporting Station
Broken Clouds Broken Clouds  
Wind Chill: 16°   Ceiling: 4000
Heat Index: 16°   Visibility: 6mi
Dew Point: 14°   Wind: 5mph
Humidity: 88%   Direction: 40°NE
Pressure: 30"   Gusts: NA
Location:  30.75°N, 49.71°E
Report Text: OIAG 211600Z 04004KT 9999 FEW035CB BKN040 16/14 Q1016 RESH
Loading
Personal Weather Stations






























Interactive Weather Map New forecast layout! Learn more

10-Day Weather Forecast

Advertisements
Track Severe Weather on mobile